Time;durP1;ratioP1;P1;durP2;ratioP2;P2;SDS_P1;SDS_P2;PMS_P1;PMS_P2;Temp;Humidity;BMP_temperature;BMP_pressure;BME280_temperature;BME280_humidity;BME280_pressure;Samples;Min_cycle;Max_cycle;Signal;HPM_P1;HPM_P2
2021/03/24 00:02:05;;;;;;;6.43;2.77;;;;;;;-3.16;71.31;99961.47;1695690;83;21191;-62
2021/03/24 00:04:34;;;;;;;7.07;3.30;;;;;;;-3.19;70.67;99965.30;1695213;84;21282;-63
2021/03/24 00:07:04;;;;;;;5.77;3.20;;;;;;;-3.20;70.76;99968.73;1679651;84;21182;-63
2021/03/24 00:09:34;;;;;;;;;;;;;;;-3.22;70.99;99961.39;1698085;83;21209;-63
2021/03/24 00:12:03;;;;;;;4.73;2.80;;;;;;;-3.26;70.37;99969.91;1695657;83;20279;-64
2021/03/24 00:14:33;;;;;;;5.90;2.63;;;;;;;-3.28;70.29;99967.72;1695940;84;21211;-64
2021/03/24 00:17:03;;;;;;;6.83;3.20;;;;;;;-3.30;70.14;99968.11;1695842;84;21404;-62
2021/03/24 00:19:32;;;;;;;7.75;2.50;;;;;;;-3.31;70.36;99973.23;1695744;84;21317;-63
2021/03/24 00:22:03;;;;;;;5.20;2.80;;;;;;;-3.32;70.16;99978.80;1695119;83;21252;-63
2021/03/24 00:24:31;;;;;;;8.03;3.00;;;;;;;-3.34;70.24;99981.77;1695600;84;21204;-62
2021/03/24 00:27:00;;;;;;;5.13;2.90;;;;;;;-3.35;70.40;99981.34;1695575;83;21185;-62
2021/03/24 00:29:28;;;;;;;6.20;3.10;;;;;;;-3.35;70.67;99980.05;1695475;84;21534;-62
2021/03/24 00:31:56;;;;;;;6.73;3.57;;;;;;;-3.36;71.02;99991.17;1691798;83;21227;-61
2021/03/24 00:34:25;;;;;;;10.13;3.20;;;;;;;-3.38;70.83;99982.59;1685401;85;21160;-62
2021/03/24 00:36:54;;;;;;;6.67;3.10;;;;;;;-3.38;71.50;99987.73;1685418;84;21144;-62
2021/03/24 00:39:22;;;;;;;5.97;3.10;;;;;;;-3.39;71.18;99985.98;1685300;85;21187;-62
2021/03/24 00:41:50;;;;;;;7.40;3.40;;;;;;;-3.38;71.84;99983.88;1685332;85;21405;-62
2021/03/24 00:44:18;;;;;;;5.53;3.20;;;;;;;-3.38;71.07;99989.02;1685103;83;21179;-62
2021/03/24 00:46:46;;;;;;;8.20;3.37;;;;;;;-3.37;70.58;99992.89;1685640;84;21643;-61
2021/03/24 00:49:15;;;;;;;5.33;2.97;;;;;;;-3.38;71.03;99991.60;1685206;85;21484;-63
2021/03/24 00:51:43;;;;;;;6.43;2.80;;;;;;;-3.38;71.44;99991.17;1685422;85;21465;-61
2021/03/24 00:54:12;;;;;;;5.00;2.97;;;;;;;-3.36;71.74;99993.75;1685349;85;21284;-63
2021/03/24 00:56:47;;;;;;;4.97;2.77;;;;;;;-3.37;70.72;99998.05;1685763;83;21650;-62
2021/03/24 00:59:15;;;;;;;5.90;2.73;;;;;;;-3.37;71.01;99999.76;1704051;83;21206;-73
2021/03/24 01:01:43;;;;;;;6.57;3.10;;;;;;;-3.37;70.82;99999.76;1681263;83;21242;-70
2021/03/24 01:04:12;;;;;;;4.57;2.70;;;;;;;-3.38;70.74;100010.48;1681008;84;21163;-71
2021/03/24 01:06:40;;;;;;;5.50;3.07;;;;;;;-3.38;70.52;100007.91;1681390;85;22298;-72
2021/03/24 01:09:11;;;;;;;3.67;2.60;;;;;;;-3.38;71.20;100013.48;1681212;85;21179;-72
2021/03/24 01:11:53;;;;;;;6.40;3.20;;;;;;;-3.38;71.06;100014.77;1681377;85;21211;-71
2021/03/24 01:14:21;;;;;;;5.23;2.30;;;;;;;-3.36;70.89;100027.23;1614793;87;21187;-63
2021/03/24 01:16:51;;;;;;;5.13;2.67;;;;;;;-3.36;71.23;100024.66;1623737;87;21183;-62
2021/03/24 01:19:20;;;;;;;4.77;3.00;;;;;;;-3.37;71.62;100027.66;1625931;86;21787;-63
2021/03/24 01:21:48;;;;;;;5.97;2.90;;;;;;;-3.35;71.63;100021.25;1660871;84;21198;-63
2021/03/24 01:24:17;;;;;;;7.00;2.97;;;;;;;-3.34;71.10;100029.84;1757898;80;21194;-62
2021/03/24 01:26:53;;;;;;;4.40;2.73;;;;;;;-3.35;70.86;100027.69;1758027;79;21221;-63
2021/03/24 01:29:22;;;;;;;8.13;3.27;;;;;;;-3.35;70.89;100037.99;1654763;85;21196;-75
2021/03/24 01:31:50;;;;;;;4.07;2.60;;;;;;;-3.34;70.55;100038.42;1654943;86;21700;-74
2021/03/24 01:34:18;;;;;;;8.67;3.10;;;;;;;-3.34;70.68;100042.29;1624432;87;21239;-74
2021/03/24 01:36:47;;;;;;;6.83;3.33;;;;;;;-3.33;70.41;100045.33;1616903;88;21256;-74
2021/03/24 01:39:15;;;;;;;5.77;2.77;;;;;;;-3.32;70.45;100035.46;1597318;89;21762;-74
2021/03/24 01:41:43;;;;;;;5.97;2.73;;;;;;;-3.34;70.49;100042.29;1592568;89;21206;-74
2021/03/24 01:44:11;;;;;;;3.20;2.13;;;;;;;-3.30;71.04;100049.66;1671727;83;21334;-65
2021/03/24 01:46:47;;;;;;;3.57;2.50;;;;;;;-3.31;70.94;100046.23;1678110;85;21370;-65
2021/03/24 01:49:31;;;;;;;7.17;3.10;;;;;;;-3.31;70.62;100050.09;1663954;86;21149;-65
2021/03/24 01:52:06;;;;;;;7.80;3.17;;;;;;;-3.29;70.91;100052.28;1675875;84;21208;-65
2021/03/24 01:54:39;;;;;;;7.60;3.20;;;;;;;-3.29;70.45;100047.13;1692792;83;21159;-65
2021/03/24 01:57:14;;;;;;;6.22;3.12;;;;;;;-3.24;71.07;100055.80;1692410;81;21380;-64
2021/03/24 01:59:43;;;;;;;5.17;3.00;;;;;;;-3.22;70.41;100057.09;1653327;85;21229;-62
2021/03/24 02:02:30;;;;;;;4.80;2.73;;;;;;;-3.19;70.27;100053.30;1651307;85;21213;-62
2021/03/24 02:04:59;;;;;;;4.58;3.00;;;;;;;-3.17;70.54;100046.47;1649455;86;21178;-62
2021/03/24 02:07:35;;;;;;;7.87;2.67;;;;;;;-3.15;70.41;100051.23;1647799;86;21302;-61
2021/03/24 02:10:20;;;;;;;5.17;2.80;;;;;;;-3.16;70.39;100046.47;1646757;86;21241;-61
2021/03/24 02:12:55;;;;;;;4.47;3.00;;;;;;;-3.12;70.50;100052.98;1648842;82;21191;-73
2021/03/24 02:15:27;;;;;;;6.17;3.50;;;;;;;-3.11;69.91;100055.99;1659834;86;21159;-73
2021/03/24 02:17:55;;;;;;;4.93;2.80;;;;;;;-3.10;70.30;100055.17;1656949;85;21811;-72
2021/03/24 02:20:51;;;;;;;6.07;3.33;;;;;;;-3.20;70.17;100034.41;1649674;86;21174;-73
2021/03/24 02:23:45;;;;;;;4.40;3.20;;;;;;;-3.09;70.34;100044.01;1652626;85;22140;-73
2021/03/24 02:26:21;;;;;;;4.57;2.80;;;;;;;-3.05;70.01;100048.38;1649773;86;21196;-73
2021/03/24 02:28:52;;;;;;;4.13;2.97;;;;;;;-3.00;69.98;100054.47;1640512;81;21262;-62
2021/03/24 02:31:23;;;;;;;5.43;3.20;;;;;;;-2.96;70.06;100066.56;1639619;87;21274;-62
2021/03/24 02:33:53;;;;;;;5.78;2.75;;;;;;;-2.92;69.93;100068.75;1639801;87;21210;-62
2021/03/24 02:36:23;;;;;;;6.83;3.03;;;;;;;-2.90;69.87;100064.07;1639274;86;22288;-62
2021/03/24 02:38:55;;;;;;;5.73;2.93;;;;;;;-2.89;69.50;100068.40;1630028;88;21231;-62
2021/03/24 02:41:23;;;;;;;8.50;3.03;;;;;;;-2.84;70.28;100068.05;1644386;86;21222;-62
2021/03/24 02:43:51;;;;;;;5.17;3.03;;;;;;;-2.81;69.70;100069.38;1630396;83;21657;-74
2021/03/24 02:46:19;;;;;;;4.55;2.55;;;;;;;-2.78;70.41;100068.58;1666628;84;21196;-75
2021/03/24 02:48:50;;;;;;;6.40;3.00;;;;;;;-2.76;69.55;100066.47;1663403;86;21451;-74
2021/03/24 02:51:21;;;;;;;;;;;;;;;-2.77;69.26;100073.73;1665828;86;21671;-74
2021/03/24 02:53:52;;;;;;;4.90;2.55;;;;;;;-2.75;69.65;100080.22;1660445;84;20296;-73
2021/03/24 02:56:20;;;;;;;6.07;2.50;;;;;;;-2.75;69.56;100081.08;1661763;84;21203;-73
2021/03/24 02:58:51;;;;;;;5.23;3.00;;;;;;;-2.73;69.83;100078.97;1615039;82;21249;-63
2021/03/24 03:01:23;;;;;;;5.97;3.20;;;;;;;-2.73;69.47;100084.98;1600756;89;21295;-63
2021/03/24 03:03:59;;;;;;;5.22;3.25;;;;;;;-2.73;69.26;100082.83;1599900;89;21290;-62
2021/03/24 03:06:28;;;;;;;4.47;2.97;;;;;;;-2.72;69.50;100080.69;1600477;89;21698;-63
2021/03/24 03:09:07;;;;;;;5.22;3.27;;;;;;;-2.72;69.48;100087.13;1592648;89;21739;-62
2021/03/24 03:11:59;;;;;;;5.20;3.27;;;;;;;-2.71;69.47;100079.83;1636379;86;21623;-62
2021/03/24 03:14:46;;;;;;;4.85;3.12;;;;;;;-2.69;69.17;100089.75;1634951;87;22303;-62
2021/03/24 03:17:36;;;;;;;5.20;3.07;;;;;;;-2.68;69.10;100087.63;1634808;85;21212;-63
2021/03/24 03:20:28;;;;;;;5.00;3.20;;;;;;;-2.66;69.20;100088.53;1631623;87;21188;-62
2021/03/24 03:23:05;;;;;;;5.87;3.27;;;;;;;-2.63;69.64;100092.00;1660396;86;21208;-63
2021/03/24 03:25:39;;;;;;;3.90;2.70;;;;;;;-2.61;70.11;100094.62;1673683;83;21269;-75
2021/03/24 03:28:11;;;;;;;6.42;3.17;;;;;;;-2.58;69.50;100095.55;1689097;84;21217;-76
2021/03/24 03:30:42;;;;;;;5.83;3.33;;;;;;;-2.55;69.29;100099.88;1689061;84;21192;-74
2021/03/24 03:33:12;;;;;;;5.70;3.50;;;;;;;-2.52;68.99;100092.18;1693818;83;21215;-73
2021/03/24 03:35:40;;;;;;;6.15;3.90;;;;;;;-2.51;68.76;100101.63;1717766;83;21186;-74
2021/03/24 03:38:15;;;;;;;5.60;3.45;;;;;;;-2.50;68.97;100107.26;1717919;83;21194;-74
2021/03/24 03:40:45;;;;;;;7.42;4.35;;;;;;;-2.48;68.98;100106.86;1691109;78;21191;-62
2021/03/24 03:43:16;;;;;;;5.12;3.10;;;;;;;-2.50;69.07;100107.26;1679158;83;21225;-62
2021/03/24 03:45:47;;;;;;;5.75;3.30;;;;;;;-2.49;69.48;100101.23;1697535;84;21238;-61
2021/03/24 03:48:17;;;;;;;4.87;3.10;;;;;;;-2.49;69.08;100108.98;1697552;84;21214;-64
2021/03/24 03:50:49;;;;;;;4.55;3.22;;;;;;;-2.49;69.10;100106.83;1697495;84;21190;-64
2021/03/24 03:53:29;;;;;;;7.87;3.15;;;;;;;-2.50;69.79;100111.13;1668260;84;21600;-62
2021/03/24 03:56:20;;;;;;;5.97;3.52;;;;;;;-2.49;69.26;100111.98;1715288;80;21281;-71
2021/03/24 03:59:12;;;;;;;5.92;3.37;;;;;;;-2.51;68.79;100108.52;1705998;83;21171;-72
2021/03/24 04:01:45;;;;;;;6.70;3.67;;;;;;;-2.56;68.68;100111.02;1728466;82;21180;-72
2021/03/24 04:04:21;;;;;;;17.57;3.67;;;;;;;-2.57;68.86;100122.19;1719177;82;21184;-71
2021/03/24 04:07:16;;;;;;;5.47;3.42;;;;;;;-2.57;68.92;100128.64;1702199;83;21631;-71
2021/03/24 04:09:44;;;;;;;7.92;3.37;;;;;;;-2.59;68.94;100127.31;1714343;82;21224;-61
2021/03/24 04:12:14;;;;;;;8.60;3.77;;;;;;;-2.58;68.90;100126.88;1640082;87;21170;-62
2021/03/24 04:14:43;;;;;;;6.60;3.25;;;;;;;-2.59;69.56;100127.74;1626694;86;21207;-62
2021/03/24 04:17:17;;;;;;;9.63;4.12;;;;;;;-2.57;69.18;100131.22;1631894;87;21208;-61
2021/03/24 04:19:49;;;;;;;5.25;3.50;;;;;;;-2.55;68.85;100135.98;1635548;87;21706;-62
2021/03/24 04:22:20;;;;;;;5.80;3.17;;;;;;;-2.55;69.07;100138.56;1637756;87;21224;-62
2021/03/24 04:24:52;;;;;;;7.47;3.83;;;;;;;-2.55;69.38;100144.58;1650813;83;21542;-75
2021/03/24 04:27:25;;;;;;;;;;;;;;;-2.51;70.17;100148.05;1665438;86;21681;-72
2021/03/24 04:29:59;;;;;;;6.40;3.02;;;;;;;-2.48;69.83;100151.99;1635408;87;20273;-72
2021/03/24 04:32:27;;;;;;;5.37;3.07;;;;;;;-2.51;69.67;100145.47;1641978;87;21231;-73
2021/03/24 04:34:56;;;;;;;8.10;4.10;;;;;;;-2.52;70.41;100151.48;1641868;86;21242;-70
2021/03/24 04:37:43;;;;;;;7.37;4.08;;;;;;;-2.52;69.27;100154.07;1683089;84;21587;-70
2021/03/24 04:40:29;;;;;;;5.95;3.40;;;;;;;-2.54;69.99;100153.17;1659605;82;21190;-65
2021/03/24 04:43:17;;;;;;;8.35;4.20;;;;;;;-2.52;70.58;100161.80;1711956;82;21171;-65
2021/03/24 04:46:21;;;;;;;10.88;4.10;;;;;;;-2.47;69.76;100174.34;1708782;82;22718;-64
2021/03/24 04:49:05;;;;;;;5.12;3.67;;;;;;;-2.48;69.10;100163.59;1687656;85;21237;-64
2021/03/24 04:51:37;;;;;;;6.62;4.00;;;;;;;-2.43;69.74;100174.84;1705566;82;21218;-64
2021/03/24 04:54:22;;;;;;;9.03;3.70;;;;;;;-2.37;69.52;100180.12;1707390;82;21179;-65
2021/03/24 04:56:53;;;;;;;5.70;3.65;;;;;;;-2.30;69.42;100178.91;1691092;81;21220;-71
2021/03/24 04:59:25;;;;;;;6.55;3.10;;;;;;;-2.19;68.50;100176.07;1689854;84;21265;-70
2021/03/24 05:02:15;;;;;;;4.92;3.27;;;;;;;-1.83;68.82;100173.59;1680517;85;21155;-69
2021/03/24 05:04:58;;;;;;;6.30;3.55;;;;;;;-1.60;67.10;100173.47;1670369;85;21193;-70
2021/03/24 05:07:54;;;;;;;6.22;3.52;;;;;;;-1.48;67.80;100173.62;1661530;85;21622;-69
2021/03/24 05:10:27;;;;;;;8.25;3.75;;;;;;;-1.38;68.98;100178.89;1683225;81;21178;-66
2021/03/24 05:13:07;;;;;;;8.98;4.40;;;;;;;-1.31;66.72;100178.15;1669474;84;22374;-65
2021/03/24 05:15:42;;;;;;;5.22;2.80;;;;;;;-1.29;65.45;100179.90;1668692;86;21172;-64
2021/03/24 05:18:13;;;;;;;6.55;3.90;;;;;;;-1.26;64.33;100177.77;1667456;86;21167;-64
2021/03/24 05:21:15;;;;;;;6.42;3.47;;;;;;;-1.25;64.57;100181.22;1667491;85;21198;-64
2021/03/24 05:23:46;;;;;;;6.58;3.47;;;;;;;-1.23;64.78;100181.67;1667749;85;27236;-65
2021/03/24 05:26:34;;;;;;;9.53;3.85;;;;;;;-1.16;65.52;100187.34;1665313;79;21439;-70
2021/03/24 05:29:04;;;;;;;4.85;3.00;;;;;;;-1.07;65.19;100184.87;1662097;86;21186;-71
2021/03/24 05:31:39;;;;;;;;;;;;;;;-1.04;63.95;100186.62;1664327;84;21223;-70
2021/03/24 05:34:19;;;;;;;5.72;2.90;;;;;;;-1.02;63.93;100194.39;1663461;85;20286;-70
2021/03/24 05:36:48;;;;;;;;;;;;;;;-1.07;63.82;100187.45;1664198;86;21186;-70
2021/03/24 05:39:29;;;;;;;6.25;3.50;;;;;;;-1.01;63.46;100197.41;1667165;84;21732;-69
2021/03/24 05:42:38;;;;;;;6.80;3.75;;;;;;;-1.03;63.10;100200.44;1606689;82;21196;-65
2021/03/24 05:45:29;;;;;;;6.03;3.47;;;;;;;-1.03;63.40;100211.63;1638268;87;21714;-65
2021/03/24 05:48:39;;;;;;;7.05;4.05;;;;;;;-0.97;63.94;100207.80;1613563;88;21217;-65
2021/03/24 05:51:16;;;;;;;8.95;3.67;;;;;;;-0.90;63.20;100208.34;1640192;86;21159;-64
2021/03/24 05:54:12;;;;;;;8.25;4.35;;;;;;;-0.85;63.66;100207.09;1633956;87;21486;-65
2021/03/24 05:57:02;;;;;;;9.40;4.97;;;;;;;-0.83;63.13;100217.00;1652255;84;21175;-70
2021/03/24 06:00:01;;;;;;;8.18;5.08;;;;;;;-0.78;62.88;100208.00;1676503;83;21163;-71
2021/03/24 06:03:04;;;;;;;9.58;5.42;;;;;;;-0.76;62.24;100211.06;1750198;80;21168;-70
2021/03/24 06:06:04;;;;;;;8.53;4.53;;;;;;;-0.72;61.95;100215.39;1633079;85;21267;-71
2021/03/24 06:08:53;;;;;;;11.97;5.37;;;;;;;-0.66;62.07;100221.94;1621477;86;21272;-71
2021/03/24 06:12:02;;;;;;;9.93;4.85;;;;;;;-0.57;63.22;100220.30;1650532;82;21186;-67
2021/03/24 06:15:00;;;;;;;7.17;4.08;;;;;;;-0.48;61.33;100241.09;1689018;83;21602;-67
2021/03/24 06:17:46;;;;;;;8.48;4.78;;;;;;;-0.43;61.77;100232.94;1678281;83;21200;-66
2021/03/24 06:20:47;;;;;;;7.95;4.05;;;;;;;-0.34;62.11;100236.04;1684848;83;21204;-66
2021/03/24 06:23:51;;;;;;;9.30;4.95;;;;;;;-0.25;61.20;100239.56;1683394;82;21519;-67
2021/03/24 06:26:59;;;;;;;7.95;4.95;;;;;;;-0.15;61.47;100244.83;1670606;82;21246;-70
2021/03/24 06:29:52;;;;;;;7.28;4.45;;;;;;;-0.01;62.60;100240.18;1657143;86;21234;-69
2021/03/24 06:33:00;;;;;;;11.63;5.40;;;;;;;0.17;61.22;100245.07;1814387;76;24452;-70
2021/03/24 06:36:07;;;;;;;6.53;4.20;;;;;;;0.33;61.50;100248.63;1754398;79;21228;-70
2021/03/24 06:39:13;;;;;;;9.43;5.08;;;;;;;0.79;61.79;100246.30;1785441;79;21463;-70
2021/03/24 06:42:31;;;;;;;9.00;5.05;;;;;;;1.19;59.23;100240.81;1765699;77;21689;-67
2021/03/24 06:45:21;;;;;;;7.75;4.42;;;;;;;1.45;58.40;100244.78;1717954;82;21201;-67
2021/03/24 06:48:19;;;;;;;6.30;4.67;;;;;;;1.64;57.89;100244.81;1704598;84;21238;-69
2021/03/24 06:51:26;;;;;;;8.30;4.42;;;;;;;1.85;56.78;100239.63;1704612;84;21158;-68
2021/03/24 06:54:22;;;;;;;7.55;4.70;;;;;;;1.89;55.19;100243.96;1704806;82;21701;-69
2021/03/24 06:57:41;;;;;;;9.63;4.50;;;;;;;1.79;55.73;100253.03;1723892;80;21632;-71
2021/03/24 07:03:09;;;;;;;11.40;6.13;;;;;;;1.88;55.92;100243.51;1805921;79;22658;-71
2021/03/24 07:06:01;;;;;;;11.57;5.20;;;;;;;1.95;55.75;100253.47;1711276;83;21303;-69
2021/03/24 07:08:59;;;;;;;9.88;5.28;;;;;;;2.26;54.05;100262.12;1698304;83;21210;-65
2021/03/24 07:12:07;;;;;;;9.50;5.12;;;;;;;2.53;53.32;100259.03;1685722;80;21265;-63
2021/03/24 07:14:53;;;;;;;11.85;5.95;;;;;;;2.62;52.73;100252.55;1671982;83;21164;-62
2021/03/24 07:17:55;;;;;;;8.75;5.62;;;;;;;2.58;52.70;100261.21;1690885;84;21208;-62
2021/03/24 07:21:10;;;;;;;10.80;5.97;;;;;;;2.64;54.90;100267.67;1690867;84;21208;-63
2021/03/24 07:24:12;;;;;;;15.60;5.90;;;;;;;2.83;54.66;100274.13;1691006;84;21227;-63
2021/03/24 07:27:12;;;;;;;9.83;5.67;;;;;;;3.62;54.71;100272.90;1701504;81;21785;-67
2021/03/24 07:30:06;;;;;;;8.80;5.10;;;;;;;3.62;54.71;100272.90;1712418;83;21212;-67
2021/03/24 07:32:58;;;;;;;10.55;5.70;;;;;;;4.21;55.87;100282.46;1712606;83;21203;-63
2021/03/24 07:35:39;;;;;;;8.20;4.80;;;;;;;4.92;52.20;100281.73;1712638;83;21415;-69
2021/03/24 07:38:47;;;;;;;7.58;5.35;;;;;;;5.62;49.07;100276.91;1712306;83;21375;-68
2021/03/24 07:41:26;;;;;;;10.50;5.55;;;;;;;6.41;47.04;100271.77;1716550;80;21298;-68
2021/03/24 07:44:19;;;;;;;8.30;5.35;;;;;;;7.18;47.33;100276.41;1677307;85;21151;-67
2021/03/24 07:47:32;;;;;;;9.98;6.15;;;;;;;8.00;44.15;100275.44;1664981;86;21234;-67
2021/03/24 07:50:36;;;;;;;9.10;5.20;;;;;;;8.75;40.78;100280.57;1646712;86;21315;-68
2021/03/24 07:53:34;;;;;;;8.65;5.00;;;;;;;9.44;39.03;100279.92;1677621;85;21244;-69
2021/03/24 07:56:29;;;;;;;13.35;5.58;;;;;;;9.76;39.28;100282.88;1684475;80;21324;-73
2021/03/24 07:59:32;;;;;;;8.03;5.22;;;;;;;10.02;37.56;100275.92;1713351;83;21604;-74
2021/03/24 08:02:47;;;;;;;12.10;5.87;;;;;;;10.49;35.71;100280.11;1741434;82;21210;-73
2021/03/24 08:06:05;;;;;;;8.18;4.90;;;;;;;11.05;37.92;100281.18;1756565;81;21218;-72
2021/03/24 08:09:20;;;;;;;6.55;4.60;;;;;;;11.52;34.21;100271.92;1757643;80;21807;-74
2021/03/24 08:12:08;;;;;;;8.90;5.30;;;;;;;11.85;34.07;100280.78;1749691;80;21199;-75
2021/03/24 08:15:00;;;;;;;6.42;5.15;;;;;;;11.91;33.51;100273.95;1705914;82;21474;-74
2021/03/24 08:17:57;;;;;;;9.20;5.40;;;;;;;11.95;32.03;100278.19;1702254;83;21741;-74
2021/03/24 08:21:03;;;;;;;7.80;5.05;;;;;;;11.90;31.41;100282.80;1702081;84;21224;-75
2021/03/24 08:24:02;;;;;;;6.15;4.22;;;;;;;12.11;33.33;100293.41;1888613;75;22640;-74
2021/03/24 08:26:52;;;;;;;10.78;4.50;;;;;;;12.29;31.97;100299.27;1830563;76;21242;-74
2021/03/24 08:30:16;;;;;;;16.52;4.60;;;;;;;12.27;31.02;100293.18;1767432;81;21300;-74
2021/03/24 08:33:02;;;;;;;7.58;5.10;;;;;;;12.37;32.60;100289.22;1737446;81;21203;-74
2021/03/24 08:36:12;;;;;;;8.20;5.12;;;;;;;12.77;32.97;100296.78;1749781;81;21228;-73
2021/03/24 08:39:13;;;;;;;22.30;5.85;;;;;;;12.82;30.68;100289.98;1771478;80;21191;-72
2021/03/24 08:42:15;;;;;;;7.75;4.60;;;;;;;12.77;30.98;100287.54;1753804;78;21689;-73
2021/03/24 08:44:59;;;;;;;7.90;4.53;;;;;;;12.91;34.66;100290.05;1683925;83;21838;-74
2021/03/24 08:47:40;;;;;;;8.23;5.40;;;;;;;12.90;29.27;100295.77;1684710;83;21197;-73
2021/03/24 08:50:17;;;;;;;10.23;5.03;;;;;;;12.24;30.16;100294.64;1702343;84;21246;-76
2021/03/24 08:53:15;;;;;;;9.28;4.78;;;;;;;12.16;31.37;100299.36;1700578;84;21194;-75
2021/03/24 08:56:19;;;;;;;9.38;5.25;;;;;;;12.19;30.34;100304.50;1681139;82;21676;-73
2021/03/24 08:59:05;;;;;;;13.95;5.55;;;;;;;12.06;30.85;100292.75;1721230;83;21344;-75
2021/03/24 09:02:27;;;;;;;9.80;5.00;;;;;;;11.68;30.92;100296.40;1736557;81;21668;-74
2021/03/24 09:05:08;;;;;;;9.60;5.70;;;;;;;11.33;31.82;100299.93;1742114;80;21206;-75
2021/03/24 09:08:19;;;;;;;10.00;5.28;;;;;;;11.29;33.20;100306.22;1742302;80;21207;-75
2021/03/24 09:11:24;;;;;;;9.18;5.40;;;;;;;11.52;34.69;100306.21;1779972;80;21210;-75
2021/03/24 09:14:08;;;;;;;10.35;5.90;;;;;;;11.82;31.38;100309.91;1741830;81;21712;-77
2021/03/24 09:17:21;;;;;;;24.90;7.22;;;;;;;11.88;33.25;100302.26;1746130;81;21365;-77
2021/03/24 09:20:27;;;;;;;11.22;5.78;;;;;;;12.05;32.63;100294.97;1739337;81;21182;-77
2021/03/24 09:23:45;;;;;;;10.85;6.03;;;;;;;12.07;31.81;100299.73;1741851;80;21146;-79
2021/03/24 09:26:39;;;;;;;9.30;5.95;;;;;;;12.12;31.08;100296.44;1729337;78;21130;-73
2021/03/24 09:29:46;;;;;;;10.40;5.87;;;;;;;12.41;34.14;100303.64;1748906;81;21382;-73
2021/03/24 09:33:03;;;;;;;10.98;5.50;;;;;;;12.57;31.54;100284.89;1743329;81;21185;-75
2021/03/24 09:35:56;;;;;;;10.10;5.87;;;;;;;12.73;30.25;100304.44;1747092;80;21192;-73
2021/03/24 09:38:25;;;;;;;8.63;5.62;;;;;;;12.61;31.74;100298.37;1750385;81;21185;-74
2021/03/24 09:41:20;;;;;;;7.62;5.60;;;;;;;12.55;30.26;100295.98;1727762;81;21160;-73
2021/03/24 09:43:56;;;;;;;7.70;5.10;;;;;;;12.31;30.63;100298.73;1748992;81;21431;-73
2021/03/24 09:46:49;;;;;;;10.80;5.67;;;;;;;12.03;30.79;100295.49;1754932;81;21198;-72
2021/03/24 09:49:38;;;;;;;10.85;5.58;;;;;;;11.50;31.58;100297.53;1749147;81;21212;-72
2021/03/24 09:52:19;;;;;;;9.78;5.05;;;;;;;10.95;34.20;100301.32;1738294;80;21108;-73
2021/03/24 09:55:08;;;;;;;10.08;5.35;;;;;;;10.52;33.94;100298.42;1738468;81;21756;-74
2021/03/24 09:57:55;;;;;;;10.78;6.12;;;;;;;10.26;33.78;100289.61;1755209;80;21211;-79
2021/03/24 10:00:25;;;;;;;9.55;5.40;;;;;;;10.11;33.89;100290.09;1725035;83;21284;-80
2021/03/24 10:03:19;;;;;;;6.85;4.72;;;;;;;9.65;34.43;100295.50;1710648;83;21206;-80
2021/03/24 10:05:59;;;;;;;12.37;5.30;;;;;;;9.22;35.93;100304.21;1751024;80;21653;-78
2021/03/24 10:08:38;;;;;;;7.75;4.72;;;;;;;9.44;37.77;100299.17;1761130;81;21131;-79
2021/03/24 10:11:23;;;;;;;7.35;5.22;;;;;;;9.54;35.35;100301.53;1730268;82;21387;-79
2021/03/24 10:14:05;;;;;;;18.30;5.35;;;;;;;9.65;34.35;100295.50;1766960;79;21173;-73
2021/03/24 10:16:35;;;;;;;7.92;4.90;;;;;;;9.43;35.55;100283.01;1759676;81;21173;-74
2021/03/24 10:19:20;;;;;;;10.75;5.50;;;;;;;9.23;34.76;100290.16;1795958;79;21613;-74
2021/03/24 10:21:56;;;;;;;10.18;5.08;;;;;;;9.05;35.57;100295.08;1796505;78;21173;-72
2021/03/24 10:24:47;;;;;;;17.30;5.37;;;;;;;8.87;35.95;100292.05;1715106;81;22114;-75
2021/03/24 10:27:20;;;;;;;6.83;4.30;;;;;;;8.95;36.19;100288.77;1730386;79;21658;-73
2021/03/24 10:33:04;;;;;;;6.10;4.00;;;;;;;9.04;34.63;100290.25;1699346;83;21211;-72
2021/03/24 10:36:02;;;;;;;8.15;4.30;;;;;;;9.42;34.64;100284.36;1726310;81;21242;-73
2021/03/24 10:38:36;;;;;;;20.35;4.35;;;;;;;9.85;34.64;100279.11;1720666;81;21662;-72
2021/03/24 10:41:54;;;;;;;6.10;3.35;;;;;;;9.87;35.04;100278.14;1725917;81;21698;-74
2021/03/24 10:44:45;;;;;;;6.67;3.70;;;;;;;9.47;32.52;100297.36;1673094;84;21213;-71
2021/03/24 10:47:31;;;;;;;6.25;3.33;;;;;;;8.53;32.65;100287.69;1682528;83;21697;-70
2021/03/24 10:50:23;;;;;;;4.80;3.00;;;;;;;8.33;35.05;100296.06;1695878;84;21146;-71
2021/03/24 10:53:23;;;;;;;5.20;3.10;;;;;;;8.23;35.25;100305.04;1716667;81;21289;-71
2021/03/24 10:56:16;;;;;;;6.50;3.95;;;;;;;8.58;35.29;100291.50;1697379;84;21245;-70
2021/03/24 10:59:07;;;;;;;5.35;3.10;;;;;;;9.01;34.51;100287.72;1772205;80;21150;-73
2021/03/24 11:01:57;;;;;;;3.85;2.95;;;;;;;9.68;33.11;100280.92;1754552;80;21171;-71
2021/03/24 11:05:10;;;;;;;8.10;3.35;;;;;;;10.13;32.20;100272.95;1793253;80;21154;-73
2021/03/24 11:08:20;;;;;;;21.55;3.52;;;;;;;10.50;34.87;100279.19;1778749;80;21306;-72
2021/03/24 11:11:08;;;;;;;4.15;2.27;;;;;;;10.93;27.94;100275.05;1770141;80;21205;-73
2021/03/24 11:13:45;;;;;;;2.33;1.98;;;;;;;10.94;28.02;100275.44;1768595;78;21214;-71
2021/03/24 11:16:27;;;;;;;3.42;2.22;;;;;;;10.75;27.65;100279.66;1765491;81;21165;-70
2021/03/24 11:19:18;;;;;;;17.48;2.62;;;;;;;10.74;29.54;100277.45;1766002;81;21175;-69
2021/03/24 11:22:08;;;;;;;6.90;2.37;;;;;;;10.89;28.29;100276.92;1752358;81;21500;-70
2021/03/24 11:25:01;;;;;;;4.90;1.98;;;;;;;10.81;26.74;100276.78;1704603;84;21248;-70
2021/03/24 11:27:49;;;;;;;4.05;2.00;;;;;;;10.52;27.18;100272.56;1709358;77;21174;-73
2021/03/24 11:30:45;;;;;;;4.47;2.60;;;;;;;10.41;29.86;100274.23;1729967;82;21649;-72
2021/03/24 11:33:24;;;;;;;6.15;2.80;;;;;;;10.14;27.29;100266.30;1708371;83;21126;-74
2021/03/24 11:36:21;;;;;;;4.45;2.70;;;;;;;9.80;28.83;100273.11;1832339;76;28789;-73
2021/03/24 11:39:06;;;;;;;5.47;2.95;;;;;;;9.66;30.18;100282.73;1784130;79;21154;-74
2021/03/24 11:41:43;;;;;;;4.10;2.98;;;;;;;9.43;31.73;100276.44;1778300;79;21076;-71
2021/03/24 11:44:17;;;;;;;11.60;3.30;;;;;;;8.98;30.82;100269.43;1752587;79;21189;-70
2021/03/24 11:46:52;;;;;;;6.95;2.85;;;;;;;8.74;32.10;100277.52;1780067;79;21150;-71
2021/03/24 11:49:41;;;;;;;7.00;4.75;;;;;;;8.64;32.80;100270.80;1775795;79;21194;-71
2021/03/24 11:52:43;;;;;;;7.10;2.65;;;;;;;8.69;32.39;100272.39;1774680;79;21183;-69
2021/03/24 11:55:29;;;;;;;;;;;;;;;8.80;31.46;100279.98;1791725;79;21357;-71
2021/03/24 11:58:27;;;;;;;6.80;2.77;;;;;;;8.97;40.40;100275.14;1778011;78;20233;-76
2021/03/24 12:01:14;;;;;;;6.40;3.15;;;;;;;9.32;42.76;100268.47;1772179;79;21158;-74
2021/03/24 12:04:14;;;;;;;6.53;3.22;;;;;;;9.68;31.00;100252.46;1774479;79;21177;-74
2021/03/24 12:07:19;;;;;;;4.83;2.37;;;;;;;9.85;30.35;100281.27;1827028;78;21637;-74
2021/03/24 12:09:47;;;;;;;4.85;2.52;;;;;;;10.01;31.18;100272.91;1804567;78;22375;-74
2021/03/24 12:12:21;;;;;;;3.50;2.95;;;;;;;10.07;30.04;100270.05;1792787;78;21181;-78
2021/03/24 12:15:08;;;;;;;12.93;3.30;;;;;;;9.98;29.78;100272.98;1695714;82;21178;-76
2021/03/24 12:17:39;;;;;;;6.40;3.47;;;;;;;9.90;30.73;100273.70;1719686;81;21229;-75
2021/03/24 12:20:17;;;;;;;4.60;3.12;;;;;;;9.86;30.39;100268.52;1720761;81;22260;-81
2021/03/24 12:22:57;;;;;;;4.20;3.25;;;;;;;9.65;30.79;100270.52;1715799;83;22317;-79
2021/03/24 12:25:30;;;;;;;;;;;;;;;9.39;32.09;100278.74;1691730;84;21756;-81
2021/03/24 12:28:05;;;;;;;13.43;4.95;;;;;;;9.29;32.44;100275.95;1733857;79;20278;-76
2021/03/24 12:30:47;;;;;;;6.05;3.70;;;;;;;9.42;34.08;100274.70;1768961;79;21178;-76
2021/03/24 12:33:39;;;;;;;6.72;3.70;;;;;;;9.73;39.52;100271.15;1742878;81;21193;-75
2021/03/24 12:36:20;;;;;;;5.80;3.58;;;;;;;9.85;30.43;100259.38;1785756;79;21185;-75
2021/03/24 12:38:54;;;;;;;5.83;3.98;;;;;;;9.45;31.26;100270.68;1793087;79;21201;-75
2021/03/24 12:41:43;;;;;;;7.87;4.15;;;;;;;9.22;31.51;100264.80;1776965;79;21605;-77
2021/03/24 12:44:38;;;;;;;8.85;4.03;;;;;;;9.23;33.47;100266.97;1750339;79;21241;-79
2021/03/24 12:47:30;;;;;;;5.03;3.35;;;;;;;9.14;32.65;100268.55;1755903;81;21448;-79
2021/03/24 12:50:15;;;;;;;;;;;;;;;8.89;32.67;100266.60;1749447;81;21215;-76
2021/03/24 12:53:01;;;;;;;5.87;3.17;;;;;;;8.65;32.39;100268.58;1759877;79;20271;-76
2021/03/24 12:55:31;;;;;;;6.62;3.80;;;;;;;8.42;32.88;100263.94;1749145;81;21254;-78